createdAt,value
2022-11-03T00:01:42.200Z,5.32
2022-11-03T00:04:17.842Z,5.26
2022-11-03T00:06:50.326Z,5.25
2022-11-03T00:09:21.512Z,5.18
2022-11-03T00:11:51.542Z,5.12
2022-11-03T00:14:22.994Z,5.04
2022-11-03T00:16:55.042Z,5.09
2022-11-03T00:19:24.979Z,5.11
2022-11-03T00:21:55.300Z,5.15
2022-11-03T00:24:26.935Z,5.16
2022-11-03T00:26:58.396Z,5.18
2022-11-03T00:29:27.422Z,5.19
2022-11-03T00:31:59.126Z,5.21
2022-11-03T00:34:28.361Z,5.19
2022-11-03T00:36:57.624Z,5.21
2022-11-03T00:39:25.761Z,5.16
2022-11-03T00:41:54.031Z,5.15
2022-11-03T00:44:22.367Z,5.08
2022-11-03T00:46:50.896Z,5.03
2022-11-03T00:49:22.673Z,4.98
2022-11-03T00:51:51.322Z,4.91
2022-11-03T00:54:19.319Z,4.91
2022-11-03T00:56:52.843Z,4.92
2022-11-03T00:59:20.877Z,4.94
2022-11-03T01:01:49.244Z,4.94
2022-11-03T01:04:38.689Z,4.94
2022-11-03T01:07:07.639Z,4.94
2022-11-03T01:09:40.150Z,4.95
2022-11-03T01:12:10.053Z,4.94
2022-11-03T01:14:45.706Z,4.94
2022-11-03T01:17:16.291Z,4.92
2022-11-03T01:19:50.145Z,4.88
2022-11-03T01:22:22.085Z,4.84
2022-11-03T01:24:52.103Z,4.81
2022-11-03T01:27:22.469Z,4.80
2022-11-03T01:29:50.849Z,4.74
2022-11-03T01:32:21.457Z,4.68
2022-11-03T01:34:57.721Z,4.66
2022-11-03T01:37:27.166Z,4.66
2022-11-03T01:40:00.186Z,4.66
2022-11-03T01:42:30.330Z,4.66
2022-11-03T01:45:00.958Z,4.70
2022-11-03T01:47:35.898Z,4.71
2022-11-03T01:50:12.126Z,4.74
2022-11-03T01:52:42.285Z,4.77
2022-11-03T01:55:12.964Z,4.81
2022-11-03T01:57:44.509Z,4.88
2022-11-03T02:00:13.640Z,4.91
2022-11-03T02:02:44.491Z,4.92
2022-11-03T02:05:16.047Z,4.89
2022-11-03T02:07:52.176Z,4.89
2022-11-03T02:10:24.322Z,4.81
2022-11-03T02:12:53.082Z,4.76
2022-11-03T02:15:28.024Z,4.70
2022-11-03T02:17:59.798Z,4.70
2022-11-03T02:20:36.213Z,4.73
2022-11-03T02:23:32.113Z,4.83
2022-11-03T02:26:04.429Z,4.94
2022-11-03T02:28:32.438Z,5.08
2022-11-03T02:31:15.204Z,5.14
2022-11-03T02:33:57.486Z,5.22
2022-11-03T02:36:29.355Z,5.34
2022-11-03T02:39:00.695Z,5.34
2022-11-03T02:41:44.204Z,5.43
2022-11-03T02:44:20.127Z,5.42
2022-11-03T02:46:52.882Z,5.32
2022-11-03T02:49:22.091Z,5.24
2022-11-03T02:52:00.094Z,5.21
2022-11-03T02:54:32.584Z,5.24
2022-11-03T02:57:04.921Z,5.22
2022-11-03T02:59:33.328Z,5.26
2022-11-03T03:02:06.375Z,5.31
2022-11-03T03:04:37.403Z,5.42
2022-11-03T03:07:10.835Z,5.50
2022-11-03T03:09:48.197Z,5.56
2022-11-03T03:12:24.303Z,5.63
2022-11-03T03:14:55.196Z,5.67
2022-11-03T03:17:29.665Z,5.65
2022-11-03T03:20:03.089Z,5.56
2022-11-03T03:22:37.792Z,5.49
2022-11-03T03:25:12.944Z,5.47
2022-11-03T03:27:47.323Z,5.43
2022-11-03T03:30:17.617Z,5.40
2022-11-03T03:32:48.442Z,5.39
2022-11-03T03:35:23.020Z,5.39
2022-11-03T03:37:53.553Z,5.36
2022-11-03T03:40:28.713Z,5.32
2022-11-03T03:43:02.152Z,5.26
2022-11-03T03:45:31.811Z,5.19
2022-11-03T03:48:00.684Z,5.12
2022-11-03T03:50:32.099Z,5.11
2022-11-03T03:53:02.506Z,5.01
2022-11-03T03:55:37.471Z,4.94
2022-11-03T03:58:16.162Z,4.94
2022-11-03T04:00:44.647Z,4.89
2022-11-03T04:03:28.965Z,4.88
2022-11-03T04:05:58.682Z,4.83
2022-11-03T04:08:30.344Z,4.78
2022-11-03T04:11:16.109Z,4.71
2022-11-03T04:14:03.783Z,4.67
2022-11-03T04:16:51.327Z,4.63
2022-11-03T04:19:38.410Z,4.57
2022-11-03T04:22:21.492Z,4.56
2022-11-03T04:24:50.926Z,4.52
2022-11-03T04:27:30.794Z,4.46
2022-11-03T04:30:11.943Z,4.46
2022-11-03T04:32:40.814Z,4.49
2022-11-03T04:35:19.062Z,4.54
2022-11-03T04:37:54.296Z,4.57
2022-11-03T04:40:23.360Z,4.59
2022-11-03T04:42:54.479Z,4.60
2022-11-03T04:45:28.666Z,4.56
2022-11-03T04:48:04.783Z,4.56
2022-11-03T04:50:34.478Z,4.57
2022-11-03T04:53:05.811Z,4.59
2022-11-03T04:55:35.577Z,4.63
2022-11-03T04:58:12.083Z,4.70
2022-11-03T05:00:42.623Z,4.71
2022-11-03T05:03:14.320Z,4.70
2022-11-03T05:05:42.596Z,4.67
2022-11-03T05:08:13.404Z,4.63
2022-11-03T05:10:42.900Z,4.60
2022-11-03T05:13:18.051Z,4.60
2022-11-03T05:15:50.782Z,4.54
2022-11-03T05:18:24.077Z,4.53
2022-11-03T05:20:58.584Z,4.52
2022-11-03T05:23:37.963Z,4.49
2022-11-03T05:26:10.364Z,4.47
2022-11-03T05:31:29.797Z,4.47
2022-11-03T05:34:02.811Z,4.49
2022-11-03T05:36:33.460Z,4.52
2022-11-03T05:39:35.184Z,4.50
2022-11-03T05:42:07.341Z,4.53
2022-11-03T05:44:42.812Z,4.56
2022-11-03T05:47:22.947Z,4.52
2022-11-03T05:49:52.820Z,4.49
2022-11-03T05:52:22.649Z,4.49
2022-11-03T05:54:51.746Z,4.46
2022-11-03T05:57:21.065Z,4.49
2022-11-03T05:59:52.100Z,4.52
2022-11-03T06:02:31.850Z,4.56
2022-11-03T06:05:00.158Z,4.52
2022-11-03T06:07:30.845Z,4.54
2022-11-03T06:09:59.826Z,4.61
2022-11-03T06:12:30.983Z,4.73
2022-11-03T06:14:59.243Z,4.74
2022-11-03T06:17:36.731Z,4.73
2022-11-03T06:20:12.041Z,4.68
2022-11-03T06:22:40.606Z,4.63
2022-11-03T06:25:15.558Z,4.56
2022-11-03T06:27:44.572Z,4.61
2022-11-03T06:30:21.830Z,4.60
2022-11-03T06:32:51.497Z,4.68
2022-11-03T06:35:20.937Z,4.66
2022-11-03T06:37:48.957Z,4.67
2022-11-03T06:40:36.585Z,4.73
2022-11-03T06:43:20.215Z,4.78
2022-11-03T06:45:53.568Z,4.91
2022-11-03T06:48:32.044Z,4.97
2022-11-03T06:51:00.734Z,4.98
2022-11-03T06:53:33.294Z,5.07
2022-11-03T06:56:01.641Z,5.16
2022-11-03T06:58:31.976Z,5.24
2022-11-03T07:01:07.166Z,5.22
2022-11-03T07:03:38.203Z,5.29
2022-11-03T07:06:16.561Z,5.46
2022-11-03T07:08:52.517Z,5.69
2022-11-03T07:11:22.891Z,5.95
2022-11-03T07:13:54.816Z,6.24
2022-11-03T07:16:30.270Z,6.46
2022-11-03T07:19:00.932Z,6.72
2022-11-03T07:21:35.837Z,6.92
2022-11-03T07:24:08.652Z,7.15
2022-11-03T07:26:37.070Z,7.35
2022-11-03T07:29:07.315Z,7.62
2022-11-03T07:31:35.845Z,7.85
2022-11-03T07:34:12.872Z,8.03
2022-11-03T07:36:41.351Z,8.24
2022-11-03T07:39:15.335Z,8.41
2022-11-03T07:41:46.572Z,8.62
2022-11-03T07:44:20.484Z,8.85
2022-11-03T07:46:50.136Z,8.89
2022-11-03T07:49:28.158Z,8.85
2022-11-03T07:51:58.944Z,8.92
2022-11-03T07:54:32.048Z,8.93
2022-11-03T07:57:10.502Z,8.95
2022-11-03T07:59:44.572Z,9.00
2022-11-03T08:02:27.612Z,9.05
2022-11-03T08:04:58.576Z,9.18
2022-11-03T08:07:29.408Z,9.23
2022-11-03T08:10:00.902Z,9.29
2022-11-03T08:12:31.409Z,9.36
2022-11-03T08:15:01.086Z,9.51
2022-11-03T08:17:32.241Z,9.54
2022-11-03T08:20:01.770Z,9.55
2022-11-03T08:22:30.181Z,9.65
2022-11-03T08:24:59.586Z,9.68
2022-11-03T08:27:27.939Z,9.71
2022-11-03T08:29:55.930Z,9.79
2022-11-03T08:32:24.464Z,9.85
2022-11-03T08:34:53.071Z,9.87
2022-11-03T08:37:22.678Z,9.87
2022-11-03T08:39:55.649Z,10.01
2022-11-03T08:42:25.272Z,10.16
2022-11-03T08:44:56.122Z,10.25
2022-11-03T08:47:24.383Z,10.36
2022-11-03T08:49:53.858Z,10.50
2022-11-03T08:52:24.953Z,10.55
2022-11-03T08:55:03.290Z,10.70
2022-11-03T08:57:35.606Z,10.76
2022-11-03T09:00:04.033Z,10.85
2022-11-03T09:02:34.376Z,10.97
2022-11-03T09:05:04.019Z,11.12
2022-11-03T09:10:26.382Z,11.26
2022-11-03T09:13:00.098Z,11.31
2022-11-03T09:15:30.774Z,11.32
2022-11-03T09:17:59.636Z,11.31
2022-11-03T09:20:28.703Z,11.38
2022-11-03T09:22:59.135Z,11.55
2022-11-03T09:25:27.309Z,11.53
2022-11-03T09:27:56.702Z,11.50
2022-11-03T09:30:25.651Z,11.47
2022-11-03T09:32:53.901Z,11.50
2022-11-03T09:35:26.281Z,11.50
2022-11-03T09:37:56.784Z,11.69
2022-11-03T09:40:29.865Z,11.84
2022-11-03T09:42:58.576Z,11.87
2022-11-03T09:45:29.424Z,11.84
2022-11-03T09:48:01.838Z,11.83
2022-11-03T09:50:35.838Z,11.86
2022-11-03T09:53:04.230Z,11.82
2022-11-03T09:55:35.122Z,11.87
2022-11-03T09:58:10.572Z,12.00
2022-11-03T10:00:39.056Z,12.07
2022-11-03T10:03:12.901Z,12.11
2022-11-03T10:05:41.413Z,12.12
2022-11-03T10:08:18.334Z,12.03
2022-11-03T10:10:51.471Z,11.94
2022-11-03T10:13:24.814Z,11.90
2022-11-03T10:15:53.311Z,11.95
2022-11-03T10:18:21.671Z,11.98
2022-11-03T10:20:50.135Z,12.03
2022-11-03T10:23:23.431Z,12.04
2022-11-03T10:25:55.150Z,12.08
2022-11-03T10:28:27.775Z,12.07
2022-11-03T10:31:14.299Z,12.08
2022-11-03T10:33:53.935Z,12.12
2022-11-03T10:36:29.404Z,12.10
2022-11-03T10:38:59.598Z,12.08
2022-11-03T10:41:31.787Z,12.07
2022-11-03T10:44:08.270Z,12.00
2022-11-03T10:46:50.290Z,12.01
2022-11-03T10:49:21.927Z,12.00
2022-11-03T10:51:56.019Z,12.01
2022-11-03T10:54:29.279Z,12.00
2022-11-03T10:57:05.133Z,11.97
2022-11-03T10:59:37.730Z,11.97
2022-11-03T11:02:17.478Z,11.95
2022-11-03T11:04:50.269Z,11.91
2022-11-03T11:07:24.981Z,11.89
2022-11-03T11:09:53.709Z,11.89
2022-11-03T11:12:27.086Z,11.86
2022-11-03T11:15:01.462Z,11.84
2022-11-03T11:17:46.757Z,11.87
2022-11-03T11:20:39.265Z,11.87
2022-11-03T11:23:47.223Z,11.86
2022-11-03T11:26:45.121Z,11.89
2022-11-03T11:29:48.226Z,11.83
2022-11-03T11:32:52.495Z,11.84
2022-11-03T11:36:06.901Z,11.86
2022-11-03T11:39:02.876Z,11.87
2022-11-03T11:42:09.260Z,11.89
2022-11-03T11:45:04.745Z,11.89
2022-11-03T11:47:45.702Z,11.89
2022-11-03T11:50:31.683Z,11.94
2022-11-03T11:56:14.290Z,11.97
2022-11-03T11:58:48.084Z,11.97
2022-11-03T12:01:26.708Z,11.98
2022-11-03T12:04:00.819Z,12.01
2022-11-03T12:06:37.631Z,12.04
2022-11-03T12:09:12.696Z,12.01
2022-11-03T12:11:46.489Z,12.03
2022-11-03T12:14:26.795Z,12.05
2022-11-03T12:16:59.090Z,12.11
2022-11-03T12:19:38.227Z,12.12
2022-11-03T12:22:07.412Z,12.18
2022-11-03T12:24:38.554Z,12.20
2022-11-03T12:27:21.479Z,12.18
2022-11-03T12:29:49.651Z,12.21
2022-11-03T12:32:34.590Z,12.24
2022-11-03T12:35:04.073Z,12.25
2022-11-03T12:37:33.152Z,12.29
2022-11-03T12:40:01.709Z,12.32
2022-11-03T12:42:31.627Z,12.33
2022-11-03T12:45:00.695Z,12.31
2022-11-03T12:47:30.254Z,12.28
2022-11-03T12:50:02.233Z,12.32
2022-11-03T12:52:32.230Z,12.31
2022-11-03T12:55:00.670Z,12.35
2022-11-03T12:57:30.027Z,12.35
2022-11-03T12:59:59.285Z,12.35
2022-11-03T13:02:28.961Z,12.33
2022-11-03T13:05:01.307Z,12.36
2022-11-03T13:07:34.494Z,12.38
2022-11-03T13:10:05.637Z,12.41
2022-11-03T13:12:35.598Z,12.39
2022-11-03T13:15:06.810Z,12.41
2022-11-03T13:17:59.347Z,12.41
2022-11-03T13:20:26.066Z,12.41
2022-11-03T13:22:54.637Z,12.42
2022-11-03T13:25:24.737Z,12.39
2022-11-03T13:27:56.082Z,12.38
2022-11-03T13:33:24.919Z,12.35
2022-11-03T13:35:54.536Z,12.32
2022-11-03T13:38:23.176Z,12.29
2022-11-03T13:40:56.945Z,12.24
2022-11-03T13:43:26.742Z,12.26
2022-11-03T13:45:54.841Z,12.22
2022-11-03T13:51:17.662Z,12.22
2022-11-03T14:04:46.556Z,12.25
2022-11-03T14:07:17.344Z,12.26
2022-11-03T14:09:47.678Z,12.26
2022-11-03T14:12:36.711Z,12.26
2022-11-03T14:15:07.949Z,12.29
2022-11-03T14:17:36.285Z,12.29
2022-11-03T14:20:05.678Z,12.31
2022-11-03T14:22:36.622Z,12.33
2022-11-03T14:25:06.187Z,12.26
2022-11-03T14:27:35.836Z,12.29
2022-11-03T14:30:15.943Z,12.26
2022-11-03T14:32:44.124Z,12.24
2022-11-03T14:35:15.070Z,12.22
2022-11-03T14:37:44.909Z,12.21
2022-11-03T14:40:34.045Z,12.18
2022-11-03T14:45:59.048Z,12.17
2022-11-03T14:48:28.288Z,12.14
2022-11-03T14:50:58.550Z,12.14
2022-11-03T14:53:30.070Z,12.11
2022-11-03T14:55:59.535Z,12.05
2022-11-03T14:58:34.881Z,12.08
2022-11-03T15:01:04.878Z,12.01
2022-11-03T15:06:33.770Z,11.91
2022-11-03T15:09:04.794Z,11.87
2022-11-03T15:11:35.424Z,11.82
2022-11-03T15:14:03.972Z,11.76
2022-11-03T15:16:34.639Z,11.71
2022-11-03T15:19:03.671Z,11.69
2022-11-03T15:21:31.737Z,11.67
2022-11-03T15:26:57.425Z,11.59
2022-11-03T15:29:25.989Z,11.52
2022-11-03T15:31:54.407Z,11.47
2022-11-03T15:34:23.805Z,11.39
2022-11-03T15:36:52.521Z,11.38
2022-11-03T15:39:20.748Z,11.36
2022-11-03T15:41:52.841Z,11.31
2022-11-03T15:44:25.520Z,11.25
2022-11-03T15:47:02.423Z,11.22
2022-11-03T15:49:33.593Z,11.18
2022-11-03T15:52:04.141Z,11.19
2022-11-03T15:54:32.745Z,11.15
2022-11-03T15:57:04.713Z,11.12
2022-11-03T15:59:35.554Z,11.16
2022-11-03T16:02:20.187Z,11.08
2022-11-03T16:04:54.728Z,11.02
2022-11-03T16:07:23.302Z,11.01
2022-11-03T16:09:53.068Z,10.97
2022-11-03T16:12:27.109Z,10.94
2022-11-03T16:14:58.024Z,10.87
2022-11-03T16:17:28.536Z,10.83
2022-11-03T16:19:59.277Z,10.81
2022-11-03T16:22:27.306Z,10.80
2022-11-03T16:24:56.811Z,10.76
2022-11-03T16:27:29.384Z,10.76
2022-11-03T16:29:58.019Z,10.74
2022-11-03T16:32:29.702Z,10.76
2022-11-03T16:34:59.850Z,10.77
2022-11-03T16:37:32.011Z,10.74
2022-11-03T16:40:00.033Z,10.71
2022-11-03T16:42:29.372Z,10.68
2022-11-03T16:44:57.746Z,10.67
2022-11-03T16:47:27.920Z,10.66
2022-11-03T16:49:56.861Z,10.67
2022-11-03T16:52:25.541Z,10.64
2022-11-03T16:54:59.248Z,10.66
2022-11-03T16:57:29.108Z,10.64
2022-11-03T17:00:02.150Z,10.66
2022-11-03T17:02:31.105Z,10.63
2022-11-03T17:04:59.434Z,10.59
2022-11-03T17:07:28.349Z,10.59
2022-11-03T17:10:01.757Z,10.59
2022-11-03T17:12:36.850Z,10.57
2022-11-03T17:15:05.835Z,10.60
2022-11-03T17:17:41.315Z,10.60
2022-11-03T17:20:14.089Z,10.60
2022-11-03T17:22:43.285Z,10.60
2022-11-03T17:25:13.424Z,10.60
2022-11-03T17:27:45.600Z,10.61
2022-11-03T17:30:20.314Z,10.61
2022-11-03T17:32:50.785Z,10.61
2022-11-03T17:35:24.989Z,10.63
2022-11-03T17:37:53.755Z,10.61
2022-11-03T17:40:25.428Z,10.60
2022-11-03T17:42:55.616Z,10.61
2022-11-03T17:45:30.076Z,10.59
2022-11-03T17:47:59.856Z,10.60
2022-11-03T17:50:29.665Z,10.60
2022-11-03T17:53:02.256Z,10.59
2022-11-03T17:55:32.732Z,10.57
2022-11-03T17:58:04.775Z,10.57
2022-11-03T18:00:33.958Z,10.57
2022-11-03T18:03:06.462Z,10.57
2022-11-03T18:05:38.196Z,10.55
2022-11-03T18:08:10.618Z,10.57
2022-11-03T18:10:44.848Z,10.55
2022-11-03T18:13:17.751Z,10.55
2022-11-03T18:15:48.014Z,10.55
2022-11-03T18:18:22.566Z,10.55
2022-11-03T18:20:53.654Z,10.53
2022-11-03T18:23:24.906Z,10.50
2022-11-03T18:25:54.417Z,10.49
2022-11-03T18:28:26.454Z,10.53
2022-11-03T18:30:56.876Z,10.52
2022-11-03T18:33:29.492Z,10.52
2022-11-03T18:35:58.288Z,10.52
2022-11-03T18:38:29.880Z,10.52
2022-11-03T18:41:00.098Z,10.52
2022-11-03T18:43:32.877Z,10.52
2022-11-03T18:46:06.255Z,10.50
2022-11-03T18:48:34.499Z,10.47
2022-11-03T18:51:05.508Z,10.46
2022-11-03T18:53:34.343Z,10.46
2022-11-03T18:56:02.699Z,10.50
2022-11-03T18:58:34.622Z,10.49
2022-11-03T19:01:03.788Z,10.46
2022-11-03T19:03:35.077Z,10.45
2022-11-03T19:06:12.235Z,10.43
2022-11-03T19:08:43.179Z,10.43
2022-11-03T19:11:12.324Z,10.42
2022-11-03T19:13:44.408Z,10.45
2022-11-03T19:16:15.986Z,10.42
2022-11-03T19:18:45.172Z,10.42
2022-11-03T19:21:15.134Z,10.42
2022-11-03T19:23:57.077Z,10.36
2022-11-03T19:26:31.308Z,10.32
2022-11-03T19:29:06.404Z,10.30
2022-11-03T19:31:36.826Z,10.26
2022-11-03T19:34:07.589Z,10.20
2022-11-03T19:36:36.065Z,10.19
2022-11-03T19:39:06.886Z,10.19
2022-11-03T19:41:55.229Z,10.12
2022-11-03T19:44:26.838Z,10.12
2022-11-03T19:46:56.642Z,10.08
2022-11-03T19:49:27.577Z,10.06
2022-11-03T19:51:57.907Z,10.01
2022-11-03T19:54:26.473Z,9.98
2022-11-03T19:56:55.858Z,9.98
2022-11-03T19:59:26.447Z,9.95
2022-11-03T20:01:57.466Z,9.91
2022-11-03T20:04:26.363Z,9.91
2022-11-03T20:06:56.722Z,9.88
2022-11-03T20:09:25.855Z,9.88
2022-11-03T20:11:54.865Z,9.84
2022-11-03T20:14:28.573Z,9.78
2022-11-03T20:16:57.783Z,9.74
2022-11-03T20:19:25.975Z,9.71
2022-11-03T20:21:55.218Z,9.65
2022-11-03T20:24:24.517Z,9.60
2022-11-03T20:27:02.122Z,9.60
2022-11-03T20:29:34.861Z,9.52
2022-11-03T20:32:04.077Z,9.48
2022-11-03T20:34:32.579Z,9.46
2022-11-03T20:37:04.614Z,9.46
2022-11-03T20:39:35.147Z,9.41
2022-11-03T20:42:05.746Z,9.37
2022-11-03T20:44:35.839Z,9.36
2022-11-03T20:47:04.163Z,9.31
2022-11-03T20:49:34.753Z,9.26
2022-11-03T20:52:05.077Z,9.23
2022-11-03T20:54:36.148Z,9.19
2022-11-03T20:57:05.690Z,9.16
2022-11-03T20:59:38.698Z,9.13
2022-11-03T21:02:11.697Z,9.08
2022-11-03T21:04:45.532Z,9.03
2022-11-03T21:07:14.571Z,8.99
2022-11-03T21:09:42.831Z,8.92
2022-11-03T21:12:15.351Z,8.86
2022-11-03T21:15:07.563Z,8.83
2022-11-03T21:18:07.745Z,8.79
2022-11-03T21:20:36.090Z,8.75
2022-11-03T21:23:07.460Z,8.71
2022-11-03T21:25:37.941Z,8.64
2022-11-03T21:28:06.848Z,8.60
2022-11-03T21:30:36.465Z,8.51
2022-11-03T21:33:05.821Z,8.51
2022-11-03T21:35:35.386Z,8.48
2022-11-03T21:38:04.150Z,8.44
2022-11-03T21:40:35.302Z,8.47
2022-11-03T21:43:21.583Z,8.44
2022-11-03T21:45:51.022Z,8.42
2022-11-03T21:48:37.154Z,8.41
2022-11-03T21:51:08.075Z,8.40
2022-11-03T21:53:36.635Z,8.38
2022-11-03T21:56:10.445Z,8.36
2022-11-03T21:58:42.676Z,8.34
2022-11-03T22:01:15.361Z,8.36
2022-11-03T22:03:45.819Z,8.36
2022-11-03T22:06:14.073Z,8.34
2022-11-03T22:08:48.154Z,8.37
2022-11-03T22:11:22.220Z,8.37
2022-11-03T22:13:57.578Z,8.34
2022-11-03T22:16:41.869Z,8.30
2022-11-03T22:19:33.210Z,8.26
2022-11-03T22:22:21.427Z,8.24
2022-11-03T22:25:08.257Z,8.26
2022-11-03T22:27:43.209Z,8.21
2022-11-03T22:30:30.698Z,8.19
2022-11-03T22:33:03.883Z,8.17
2022-11-03T22:35:49.872Z,8.14
2022-11-03T22:38:22.342Z,8.11
2022-11-03T22:41:08.998Z,8.09
2022-11-03T22:43:54.619Z,8.09
2022-11-03T22:46:24.067Z,8.06
2022-11-03T22:49:10.717Z,8.04
2022-11-03T22:51:40.770Z,8.06
2022-11-03T22:54:11.292Z,8.09
2022-11-03T22:56:41.142Z,8.06
2022-11-03T22:59:13.118Z,8.06
2022-11-03T23:01:41.455Z,8.09
2022-11-03T23:04:10.847Z,8.06
2022-11-03T23:06:41.072Z,8.03
2022-11-03T23:09:11.305Z,8.07
2022-11-03T23:11:42.955Z,8.09
2022-11-03T23:14:11.825Z,8.04
2022-11-03T23:16:41.565Z,8.02
2022-11-03T23:19:34.399Z,7.99
2022-11-03T23:22:03.193Z,7.96
2022-11-03T23:24:49.189Z,7.90
2022-11-03T23:27:18.407Z,7.83
2022-11-03T23:29:46.709Z,7.82
2022-11-03T23:32:14.942Z,7.81
2022-11-03T23:34:44.378Z,7.82
2022-11-03T23:37:12.496Z,7.83
2022-11-03T23:39:40.757Z,7.85
2022-11-03T23:42:09.286Z,7.86
2022-11-03T23:44:51.291Z,7.89
2022-11-03T23:47:37.710Z,7.89
2022-11-03T23:50:09.094Z,7.89
2022-11-03T23:52:38.607Z,7.89
2022-11-03T23:55:09.671Z,7.90
2022-11-03T23:57:58.353Z,7.89
